createdAt,value
2023-02-03T00:00:12.452Z,101740.72
2023-02-03T00:03:14.462Z,101734.59
2023-02-03T00:06:17.422Z,101734.38
2023-02-03T00:09:19.351Z,101723.53
2023-02-03T00:12:21.923Z,101720.09
2023-02-03T00:15:24.474Z,101709.72
2023-02-03T00:18:26.440Z,101704.63
2023-02-03T00:21:28.998Z,101686.00
2023-02-03T00:24:30.374Z,101680.69
2023-02-03T00:27:33.396Z,101670.78
2023-02-03T00:30:35.303Z,101660.06
2023-02-03T00:33:39.547Z,101662.84
2023-02-03T00:36:43.152Z,101653.41
2023-02-03T00:39:45.715Z,101642.50
2023-02-03T00:42:46.967Z,101626.31
2023-02-03T00:45:49.567Z,101637.34
2023-02-03T00:48:51.551Z,101641.38
2023-02-03T00:51:54.265Z,101628.19
2023-02-03T00:54:56.863Z,101626.50
2023-02-03T00:57:58.157Z,101629.34
2023-02-03T01:01:00.758Z,101613.34
2023-02-03T01:04:02.941Z,101607.53
2023-02-03T01:07:05.607Z,101609.88
2023-02-03T01:10:07.749Z,101609.22
2023-02-03T01:13:10.405Z,101600.53
2023-02-03T01:16:13.951Z,101591.63
2023-02-03T01:26:03.943Z,101579.56
2023-02-03T01:29:05.318Z,101569.38
2023-02-03T01:32:08.003Z,101547.88
2023-02-03T01:35:09.959Z,101553.09
2023-02-03T01:38:12.475Z,101554.00
2023-02-03T01:41:16.509Z,101548.50
2023-02-03T01:44:51.631Z,101537.66
2023-02-03T01:47:55.739Z,101503.94
2023-02-03T01:51:01.201Z,101515.72
2023-02-03T01:54:04.508Z,101512.09
2023-02-03T01:57:14.433Z,101507.56
2023-02-03T02:00:16.411Z,101498.59
2023-02-03T02:03:21.860Z,101488.59
2023-02-03T02:06:23.859Z,101479.31
2023-02-03T02:09:27.756Z,101464.28
2023-02-03T02:12:29.049Z,101460.44
2023-02-03T02:15:41.957Z,101446.00
2023-02-03T02:18:57.690Z,101429.59
2023-02-03T02:22:10.196Z,101425.72
2023-02-03T02:25:35.518Z,101398.28
2023-02-03T02:29:09.060Z,101395.75
2023-02-03T02:32:23.932Z,101388.91
2023-02-03T02:35:36.969Z,101371.47
2023-02-03T02:38:58.495Z,101366.25
2023-02-03T02:42:09.172Z,101345.47
2023-02-03T02:45:17.798Z,101342.97
2023-02-03T02:48:27.710Z,101329.88
2023-02-03T02:51:31.438Z,101326.88
2023-02-03T02:54:38.614Z,101330.59
2023-02-03T02:57:41.652Z,101321.94
2023-02-03T03:00:45.377Z,101300.84
2023-02-03T03:03:47.474Z,101295.94
2023-02-03T03:06:55.163Z,101294.91
2023-02-03T03:10:01.790Z,101296.19
2023-02-03T03:13:08.843Z,101293.94
2023-02-03T03:16:12.872Z,101272.66
2023-02-03T03:19:18.934Z,101259.34
2023-02-03T03:22:25.868Z,101248.47
2023-02-03T03:25:36.079Z,101235.91
2023-02-03T03:28:46.596Z,101235.38
2023-02-03T03:31:48.633Z,101227.00
2023-02-03T03:34:53.256Z,101230.13
2023-02-03T03:37:59.584Z,101216.25
2023-02-03T03:41:06.724Z,101217.50
2023-02-03T03:44:15.159Z,101226.94
2023-02-03T03:47:23.098Z,101219.66
2023-02-03T03:50:29.825Z,101190.91
2023-02-03T03:53:34.394Z,101189.38
2023-02-03T03:56:41.547Z,101238.00
2023-02-03T03:59:48.658Z,101227.63
2023-02-03T04:02:53.480Z,101224.31
2023-02-03T04:05:56.695Z,101216.06
2023-02-03T04:08:58.008Z,101189.63
2023-02-03T04:12:03.143Z,101188.59
2023-02-03T04:15:06.287Z,101174.81
2023-02-03T04:18:07.675Z,101158.38
2023-02-03T04:21:10.888Z,101151.28
2023-02-03T04:24:12.396Z,101134.78
2023-02-03T04:27:15.098Z,101126.97
2023-02-03T04:30:17.643Z,101136.16
2023-02-03T04:33:20.172Z,101125.34
2023-02-03T04:36:22.149Z,101117.63
2023-02-03T04:39:24.716Z,101105.50
2023-02-03T04:42:26.201Z,101109.31
2023-02-03T04:45:28.864Z,101105.53
2023-02-03T04:48:30.191Z,101088.88
2023-02-03T04:51:33.439Z,101079.66
2023-02-03T04:54:34.848Z,101072.16
2023-02-03T04:57:37.330Z,101073.44
2023-02-03T05:00:39.934Z,101075.94
2023-02-03T05:03:41.296Z,101071.13
2023-02-03T05:06:44.578Z,101070.72
2023-02-03T05:09:45.856Z,101059.41
2023-02-03T05:12:48.414Z,101059.00
2023-02-03T05:15:51.093Z,101042.47
2023-02-03T05:18:52.411Z,101039.97
2023-02-03T05:25:15.651Z,101038.66
2023-02-03T05:28:18.239Z,101022.31
2023-02-03T05:31:21.012Z,101025.03
2023-02-03T05:34:23.612Z,101017.84
2023-02-03T05:37:25.677Z,101014.91
2023-02-03T05:40:46.911Z,101007.72
2023-02-03T05:43:48.216Z,100995.63
2023-02-03T05:46:52.124Z,100995.19
2023-02-03T05:49:54.734Z,100989.47
2023-02-03T05:52:56.666Z,100987.16
2023-02-03T05:55:58.033Z,100981.22
2023-02-03T05:58:59.370Z,100970.44
2023-02-03T06:02:01.921Z,100958.69
2023-02-03T06:05:04.646Z,100943.84
2023-02-03T06:08:06.937Z,100944.88
2023-02-03T06:11:09.503Z,100931.84
2023-02-03T06:14:10.911Z,100920.97
2023-02-03T06:17:12.236Z,100922.41
2023-02-03T06:20:16.931Z,100918.34
2023-02-03T06:23:19.118Z,100911.50
2023-02-03T06:26:21.812Z,100918.47
2023-02-03T06:29:23.138Z,100910.09
2023-02-03T06:32:24.551Z,100908.78
2023-02-03T06:35:25.817Z,100912.50
2023-02-03T06:38:28.989Z,100916.59
2023-02-03T06:41:30.736Z,100910.97
2023-02-03T06:44:32.246Z,100897.19
2023-02-03T06:47:35.727Z,100892.66
2023-02-03T06:50:37.011Z,100877.09
2023-02-03T06:53:40.449Z,100877.69
2023-02-03T06:56:41.734Z,100878.81
2023-02-03T06:59:43.135Z,100872.44
2023-02-03T07:02:47.134Z,100858.91
2023-02-03T07:05:48.454Z,100866.16
2023-02-03T07:12:12.695Z,100848.16
2023-02-03T07:15:15.275Z,100848.38
2023-02-03T07:18:35.956Z,100836.78
2023-02-03T07:21:39.757Z,100825.41
2023-02-03T07:24:41.848Z,100819.88
2023-02-03T07:27:44.435Z,100816.53
2023-02-03T07:30:48.064Z,100806.50
2023-02-03T07:33:49.533Z,100797.69
2023-02-03T07:36:50.753Z,100791.78
2023-02-03T07:39:53.995Z,100783.81
2023-02-03T07:42:57.052Z,100782.66
2023-02-03T07:45:58.411Z,100776.56
2023-02-03T07:49:00.923Z,100773.41
2023-02-03T07:52:03.497Z,100774.38
2023-02-03T07:55:06.334Z,100774.38
2023-02-03T07:58:08.992Z,100774.47
2023-02-03T08:01:12.515Z,100764.16
2023-02-03T08:04:16.062Z,100767.13
2023-02-03T08:07:17.426Z,100748.88
2023-02-03T08:10:20.950Z,100753.25
2023-02-03T08:13:22.321Z,100728.84
2023-02-03T08:16:23.749Z,100721.13
2023-02-03T08:19:26.307Z,100722.75
2023-02-03T08:22:27.613Z,100728.47
2023-02-03T08:25:30.810Z,100722.06
2023-02-03T08:28:32.214Z,100724.44
2023-02-03T08:31:35.034Z,100702.16
2023-02-03T08:34:36.586Z,100704.50
2023-02-03T08:37:37.954Z,100703.22
2023-02-03T08:40:41.198Z,100702.16
2023-02-03T08:43:42.514Z,100686.22
2023-02-03T08:46:45.086Z,100679.47
2023-02-03T08:49:46.457Z,100681.59
2023-02-03T08:52:47.804Z,100670.00
2023-02-03T08:55:52.268Z,100668.69
2023-02-03T09:02:17.531Z,100662.41
2023-02-03T09:05:20.104Z,100646.03
2023-02-03T09:08:21.407Z,100655.63
2023-02-03T09:11:24.639Z,100654.22
2023-02-03T09:14:27.615Z,100645.78
2023-02-03T09:17:28.953Z,100627.41
2023-02-03T09:27:12.989Z,100626.75
2023-02-03T09:30:14.728Z,100625.81
2023-02-03T09:33:15.994Z,100628.88
2023-02-03T09:36:17.346Z,100615.94
2023-02-03T09:39:18.829Z,100613.34
2023-02-03T09:42:40.440Z,100605.13
2023-02-03T09:45:42.015Z,100608.94
2023-02-03T09:48:48.943Z,100598.94
2023-02-03T09:51:57.527Z,100585.75
2023-02-03T09:55:03.700Z,100578.63
2023-02-03T09:58:12.386Z,100548.25
2023-02-03T10:01:17.115Z,100565.22
2023-02-03T10:04:28.259Z,100548.34
2023-02-03T10:07:40.331Z,100543.94
2023-02-03T10:11:08.608Z,100526.69
2023-02-03T10:14:27.715Z,100535.47
2023-02-03T10:17:34.564Z,100519.06
2023-02-03T10:20:39.531Z,100514.69
2023-02-03T10:23:44.813Z,100543.69
2023-02-03T10:26:46.466Z,100537.66
2023-02-03T10:29:53.753Z,100533.75
2023-02-03T10:32:57.225Z,100555.72
2023-02-03T10:36:09.882Z,100578.06
2023-02-03T10:39:20.362Z,100603.50
2023-02-03T10:42:22.199Z,100634.00
2023-02-03T10:45:24.173Z,100616.78
2023-02-03T10:48:25.449Z,100613.38
2023-02-03T10:51:29.937Z,100618.00
2023-02-03T10:54:33.257Z,100612.13
2023-02-03T10:57:37.099Z,100626.13
2023-02-03T11:00:39.468Z,100611.50
2023-02-03T11:03:42.729Z,100623.91
2023-02-03T11:06:55.728Z,100620.69
2023-02-03T11:09:57.101Z,100609.84
2023-02-03T11:13:12.957Z,100609.16
2023-02-03T11:16:18.338Z,100613.22
2023-02-03T11:19:21.839Z,100602.88
2023-02-03T11:22:29.563Z,100598.59
2023-02-03T11:25:32.982Z,100591.97
2023-02-03T11:28:35.624Z,100589.91
2023-02-03T11:31:38.984Z,100603.75
2023-02-03T11:34:46.914Z,100602.06
2023-02-03T11:41:17.760Z,100603.16
2023-02-03T11:44:23.672Z,100598.56
2023-02-03T11:47:25.977Z,100608.63
2023-02-03T11:50:32.589Z,100600.69
2023-02-03T11:53:56.843Z,100614.81
2023-02-03T11:57:11.855Z,100614.25
2023-02-03T12:00:26.844Z,100594.34
2023-02-03T12:03:43.753Z,100598.13
2023-02-03T12:07:33.801Z,100607.84
2023-02-03T12:10:46.658Z,100611.09
2023-02-03T12:14:16.656Z,100606.59
2023-02-03T12:17:41.231Z,100611.97
2023-02-03T12:20:59.918Z,100618.44
2023-02-03T12:24:09.858Z,100601.91
2023-02-03T12:27:23.221Z,100601.06
2023-02-03T12:30:28.466Z,100597.34
2023-02-03T12:37:04.892Z,100609.81
2023-02-03T12:40:15.257Z,100606.69
2023-02-03T12:43:26.301Z,100614.53
2023-02-03T12:46:30.707Z,100617.19
2023-02-03T12:49:42.321Z,100656.19
2023-02-03T12:52:49.230Z,100693.16
2023-02-03T12:55:57.168Z,100737.44
2023-02-03T12:59:04.797Z,100742.88
2023-02-03T13:02:18.300Z,100739.06
2023-02-03T13:05:26.202Z,100729.06
2023-02-03T13:08:33.885Z,100742.69
2023-02-03T13:11:42.305Z,100754.47
2023-02-03T13:14:48.928Z,100754.25
2023-02-03T13:17:57.183Z,100775.31
2023-02-03T13:20:59.793Z,100807.59
2023-02-03T13:24:03.900Z,100758.56
2023-02-03T13:27:23.725Z,100746.25
2023-02-03T13:30:52.173Z,100737.56
2023-02-03T13:34:17.232Z,100726.72
2023-02-03T13:37:42.285Z,100726.59
2023-02-03T13:40:54.488Z,100723.88
2023-02-03T13:43:58.351Z,100716.81
2023-02-03T13:47:02.277Z,100721.97
2023-02-03T13:50:06.809Z,100711.78
2023-02-03T13:53:18.263Z,100734.13
2023-02-03T13:56:24.205Z,100732.94
2023-02-03T13:59:40.398Z,100718.91
2023-02-03T14:02:53.607Z,100723.53
2023-02-03T14:05:56.266Z,100708.25
2023-02-03T14:08:59.482Z,100713.22
2023-02-03T14:12:21.109Z,100704.56
2023-02-03T14:15:32.938Z,100701.13
2023-02-03T14:18:43.183Z,100705.91
2023-02-03T14:21:49.370Z,100707.25
2023-02-03T14:24:54.730Z,100713.53
2023-02-03T14:28:00.241Z,100714.53
2023-02-03T14:31:16.195Z,100708.41
2023-02-03T14:34:17.773Z,100717.53
2023-02-03T14:37:23.919Z,100717.09
2023-02-03T14:40:36.198Z,100723.03
2023-02-03T14:43:43.655Z,100721.97
2023-02-03T14:47:08.714Z,100732.16
2023-02-03T14:50:22.710Z,100744.53
2023-02-03T14:53:40.940Z,100741.81
2023-02-03T14:57:07.840Z,100736.19
2023-02-03T15:00:32.381Z,100754.00
2023-02-03T15:03:35.912Z,100751.41
2023-02-03T15:06:39.435Z,100748.19
2023-02-03T15:09:46.445Z,100771.00
2023-02-03T15:12:49.824Z,100756.84
2023-02-03T15:15:54.493Z,100755.28
2023-02-03T15:18:58.258Z,100783.19
2023-02-03T15:22:01.082Z,100785.47
2023-02-03T15:25:11.018Z,100797.66
2023-02-03T15:28:15.621Z,100806.28
2023-02-03T15:31:22.908Z,100814.63
2023-02-03T15:34:28.773Z,100841.47
2023-02-03T15:37:39.552Z,100827.25
2023-02-03T15:40:44.620Z,100829.06
2023-02-03T15:43:49.777Z,100824.69
2023-02-03T15:46:55.640Z,100830.38
2023-02-03T15:50:07.389Z,100822.22
2023-02-03T15:53:17.543Z,100834.41
2023-02-03T15:56:22.887Z,100840.59
2023-02-03T15:59:30.220Z,100835.47
2023-02-03T16:02:39.884Z,100840.66
2023-02-03T16:05:45.243Z,100856.44
2023-02-03T16:08:48.206Z,100856.34
2023-02-03T16:11:50.937Z,100863.38
2023-02-03T16:14:54.480Z,100854.13
2023-02-03T16:17:57.211Z,100858.53
2023-02-03T16:20:58.487Z,100853.19
2023-02-03T16:24:00.135Z,100865.00
2023-02-03T16:27:20.690Z,100884.38
2023-02-03T16:30:42.018Z,100883.50
2023-02-03T16:34:05.430Z,100875.53
2023-02-03T16:37:30.110Z,100882.69
2023-02-03T16:40:49.958Z,100890.69
2023-02-03T16:44:09.218Z,100879.53
2023-02-03T16:47:41.822Z,100877.56
2023-02-03T16:50:52.079Z,100875.19
2023-02-03T16:53:53.394Z,100882.69
2023-02-03T16:56:58.736Z,100887.66
2023-02-03T17:00:00.202Z,100885.25
2023-02-03T17:03:03.485Z,100889.41
2023-02-03T17:06:07.971Z,100882.13
2023-02-03T17:09:09.451Z,100872.88
2023-02-03T17:12:11.043Z,100881.06
2023-02-03T17:15:12.357Z,100886.91
2023-02-03T17:18:15.061Z,100896.06
2023-02-03T17:21:20.184Z,100888.75
2023-02-03T17:24:21.504Z,100892.28
2023-02-03T17:27:24.103Z,100909.78
2023-02-03T17:30:25.699Z,100902.25
2023-02-03T17:33:27.961Z,100905.31
2023-02-03T17:36:29.915Z,100908.28
2023-02-03T17:56:08.155Z,100934.38
2023-02-03T17:59:09.551Z,100936.16
2023-02-03T18:02:10.913Z,100945.41
2023-02-03T18:05:13.458Z,100933.41
2023-02-03T18:08:16.700Z,100942.75
2023-02-03T18:11:22.772Z,100947.47
2023-02-03T18:14:25.312Z,100954.03
2023-02-03T18:17:26.619Z,100939.28
2023-02-03T18:20:29.350Z,100953.19
2023-02-03T18:23:31.602Z,100946.06
2023-02-03T18:26:37.472Z,100947.56
2023-02-03T18:29:40.177Z,100942.28
2023-02-03T18:32:42.760Z,100938.94
2023-02-03T18:35:45.326Z,100937.94
2023-02-03T18:38:49.127Z,100958.81
2023-02-03T18:41:50.434Z,100953.03
2023-02-03T18:44:52.987Z,100951.00
2023-02-03T18:47:54.540Z,100959.00
2023-02-03T18:50:56.192Z,100959.53
2023-02-03T18:53:59.107Z,100973.47
2023-02-03T18:57:02.050Z,100982.34
2023-02-03T19:00:04.037Z,100979.03
2023-02-03T19:03:05.580Z,100996.75
2023-02-03T19:06:09.118Z,101002.91
2023-02-03T19:09:14.509Z,101012.16
2023-02-03T19:12:15.813Z,101016.69
2023-02-03T19:15:18.560Z,101007.34
2023-02-03T19:18:19.921Z,101007.91
2023-02-03T19:21:21.324Z,101011.25
2023-02-03T19:24:25.370Z,101011.97
2023-02-03T19:27:26.717Z,101014.28
2023-02-03T19:30:29.539Z,101015.94
2023-02-03T19:33:32.236Z,101023.13
2023-02-03T19:36:33.541Z,101008.50
2023-02-03T19:39:36.757Z,101028.81
2023-02-03T19:42:38.156Z,101027.75
2023-02-03T19:45:40.717Z,101025.63
2023-02-03T19:48:43.355Z,101022.16
2023-02-03T19:55:08.324Z,101030.25
2023-02-03T19:58:10.865Z,101045.41
2023-02-03T20:01:12.166Z,101040.69
2023-02-03T20:04:13.547Z,101061.78
2023-02-03T20:07:16.846Z,101045.56
2023-02-03T20:10:19.230Z,101059.06
2023-02-03T20:13:20.541Z,101063.13
2023-02-03T20:16:21.913Z,101057.38
2023-02-03T20:19:24.572Z,101055.91
2023-02-03T20:22:27.050Z,101063.28
2023-02-03T20:25:29.011Z,101061.72
2023-02-03T20:28:31.477Z,101065.16
2023-02-03T20:31:32.938Z,101071.19
2023-02-03T20:34:35.560Z,101084.16
2023-02-03T20:37:38.157Z,101096.44
2023-02-03T20:40:40.079Z,101097.91
2023-02-03T20:43:44.700Z,101099.63
2023-02-03T20:46:46.075Z,101108.16
2023-02-03T20:49:49.931Z,101111.72
2023-02-03T20:52:52.416Z,101119.06
2023-02-03T20:55:57.712Z,101122.59
2023-02-03T20:59:00.194Z,101142.97
2023-02-03T21:02:07.070Z,101156.53
2023-02-03T21:05:23.930Z,101158.28
2023-02-03T21:08:27.516Z,101155.97
2023-02-03T21:11:30.114Z,101205.16
2023-02-03T21:14:38.674Z,101240.41
2023-02-03T21:17:39.934Z,101277.03
2023-02-03T21:20:44.323Z,101293.09
2023-02-03T21:23:47.585Z,101302.47
2023-02-03T21:26:50.976Z,101340.16
2023-02-03T21:29:55.809Z,101341.00
2023-02-03T21:32:58.985Z,101352.69
2023-02-03T21:36:01.591Z,101368.16
2023-02-03T21:39:10.462Z,101366.81
2023-02-03T21:42:40.375Z,101380.38
2023-02-03T21:45:44.130Z,101390.00
2023-02-03T21:48:49.869Z,101399.00
2023-02-03T21:51:51.224Z,101404.78
2023-02-03T21:54:53.083Z,101422.41
2023-02-03T21:57:56.294Z,101442.19
2023-02-03T22:00:59.532Z,101455.94
2023-02-03T22:04:03.128Z,101452.31
2023-02-03T22:07:15.709Z,101478.00
2023-02-03T22:10:18.248Z,101472.44
2023-02-03T22:16:41.218Z,101491.66
2023-02-03T22:19:42.574Z,101512.69
2023-02-03T22:22:45.041Z,101509.53
2023-02-03T22:25:46.576Z,101517.16
2023-02-03T22:28:49.861Z,101526.56
2023-02-03T22:31:51.239Z,101545.25
2023-02-03T22:34:53.801Z,101562.00
2023-02-03T22:37:55.113Z,101567.03
2023-02-03T22:40:57.620Z,101585.44
2023-02-03T22:44:00.837Z,101594.84
2023-02-03T22:47:02.166Z,101592.28
2023-02-03T22:50:04.728Z,101610.06
2023-02-03T22:53:09.610Z,101617.28
2023-02-03T22:56:10.919Z,101634.81
2023-02-03T22:59:14.061Z,101644.06
2023-02-03T23:02:15.470Z,101657.97
2023-02-03T23:05:17.708Z,101670.25
2023-02-03T23:08:19.017Z,101667.53
2023-02-03T23:11:21.413Z,101682.16
2023-02-03T23:14:24.472Z,101698.09
2023-02-03T23:17:25.745Z,101702.69
2023-02-03T23:20:28.422Z,101727.97
2023-02-03T23:23:30.924Z,101731.34
2023-02-03T23:26:32.580Z,101745.09
2023-02-03T23:29:38.153Z,101758.97
2023-02-03T23:32:39.598Z,101763.66
2023-02-03T23:35:47.906Z,101782.28
2023-02-03T23:38:50.346Z,101798.28
2023-02-03T23:41:51.655Z,101810.75
2023-02-03T23:44:54.736Z,101820.31
2023-02-03T23:47:56.082Z,101829.19
2023-02-03T23:50:58.511Z,101843.78
2023-02-03T23:54:00.925Z,101853.63
2023-02-03T23:57:04.025Z,101871.72
